Nemiscau, Canada
Current Conditions -  °F | °C
As of 3:00 AM on Friday 19 Dec 2014 (Local Time) from CYNM Reporting Station
Overcast Overcast  
Wind Chill: -10°   Ceiling: 500
Heat Index:   Visibility: 9mi
Dew Point: -2°   Wind: 6mph
Humidity: 85%   Direction: 330°NNW
Pressure: 30.16"   Gusts: NA
Location:  51.32°N, 76.9°W
Report Text: CYNM 190800Z AUTO 33005KT 9SM OVC005 M17/M19 A3016 RMK ICG SLP242
Loading
Personal Weather Stations






























Interactive Weather Map New forecast layout! Learn more

10-Day Weather Forecast

Advertisements
Track Severe Weather on mobile